createdAt,value
2022-08-12T00:00:15.147Z,19.41
2022-08-12T00:03:17.653Z,19.31
2022-08-12T00:06:22.853Z,19.40
2022-08-12T00:09:26.408Z,19.36
2022-08-12T00:12:27.440Z,19.29
2022-08-12T00:15:34.228Z,19.36
2022-08-12T00:18:34.689Z,19.34
2022-08-12T00:21:38.084Z,19.27
2022-08-12T00:24:40.524Z,19.25
2022-08-12T00:27:44.122Z,19.23
2022-08-12T00:30:46.282Z,19.18
2022-08-12T00:33:52.484Z,19.22
2022-08-12T00:36:53.023Z,19.36
2022-08-12T00:39:54.122Z,19.62
2022-08-12T00:42:39.184Z,19.45
2022-08-12T00:45:22.670Z,19.38
2022-08-12T00:48:07.605Z,19.34
2022-08-12T00:50:55.525Z,19.29
2022-08-12T00:53:39.358Z,19.21
2022-08-12T00:56:27.362Z,19.26
2022-08-12T00:59:10.635Z,19.45
2022-08-12T01:02:10.421Z,19.41
2022-08-12T01:05:16.862Z,19.34
2022-08-12T01:08:19.550Z,19.35
2022-08-12T01:11:20.003Z,19.36
2022-08-12T01:14:05.225Z,19.23
2022-08-12T01:16:49.309Z,19.24
2022-08-12T01:19:34.941Z,19.27
2022-08-12T01:22:25.899Z,19.29
2022-08-12T01:25:12.975Z,19.29
2022-08-12T01:27:58.525Z,19.35
2022-08-12T01:30:43.936Z,19.26
2022-08-12T01:33:29.983Z,19.25
2022-08-12T01:36:14.333Z,19.36
2022-08-12T01:39:00.293Z,19.44
2022-08-12T01:41:50.523Z,19.39
2022-08-12T01:44:38.168Z,19.39
2022-08-12T01:47:33.831Z,19.34
2022-08-12T01:50:26.370Z,19.22
2022-08-12T01:53:12.008Z,19.21
2022-08-12T01:55:57.114Z,19.31
2022-08-12T01:58:58.814Z,19.22
2022-08-12T02:01:44.267Z,19.32
2022-08-12T02:04:53.342Z,19.30
2022-08-12T02:08:02.348Z,19.20
2022-08-12T02:11:12.589Z,19.11
2022-08-12T02:14:26.205Z,19.19
2022-08-12T02:17:54.512Z,19.14
2022-08-12T02:20:51.330Z,19.12
2022-08-12T02:23:38.289Z,19.29
2022-08-12T02:26:22.736Z,19.34
2022-08-12T02:29:07.497Z,19.26
2022-08-12T02:31:53.837Z,19.25
2022-08-12T02:34:37.886Z,19.26
2022-08-12T02:37:23.881Z,19.26
2022-08-12T02:40:12.048Z,19.29
2022-08-12T02:42:59.665Z,19.33
2022-08-12T02:45:48.568Z,19.35
2022-08-12T02:48:41.012Z,19.41
2022-08-12T02:51:27.149Z,19.44
2022-08-12T02:54:10.460Z,19.42
2022-08-12T02:56:54.627Z,19.40
2022-08-12T02:59:37.970Z,19.34
2022-08-12T03:02:23.929Z,19.32
2022-08-12T03:05:12.472Z,19.29
2022-08-12T03:08:01.353Z,19.34
2022-08-12T03:10:48.849Z,19.32
2022-08-12T03:13:40.227Z,19.29
2022-08-12T03:16:24.554Z,19.32
2022-08-12T03:19:08.080Z,19.31
2022-08-12T03:22:09.485Z,19.28
2022-08-12T03:24:52.910Z,19.20
2022-08-12T03:27:40.519Z,19.26
2022-08-12T03:30:24.586Z,19.31
2022-08-12T03:33:09.352Z,19.30
2022-08-12T03:35:55.830Z,19.28
2022-08-12T03:38:43.270Z,19.27
2022-08-12T03:41:36.766Z,19.25
2022-08-12T03:44:44.185Z,19.29
2022-08-12T03:47:52.527Z,19.26
2022-08-12T03:50:53.096Z,19.31
2022-08-12T03:53:54.238Z,19.35
2022-08-12T03:56:56.158Z,19.41
2022-08-12T03:59:56.698Z,19.35
2022-08-12T04:02:41.265Z,19.27
2022-08-12T04:05:24.622Z,19.20
2022-08-12T04:08:28.507Z,19.22
2022-08-12T04:11:32.095Z,19.12
2022-08-12T04:14:20.719Z,18.98
2022-08-12T04:17:04.889Z,18.93
2022-08-12T04:19:49.255Z,18.80
2022-08-12T04:22:32.660Z,18.88
2022-08-12T04:25:16.022Z,18.74
2022-08-12T04:28:13.377Z,18.87
2022-08-12T04:30:58.439Z,18.71
2022-08-12T04:33:42.442Z,18.60
2022-08-12T04:36:25.586Z,18.54
2022-08-12T04:39:10.598Z,18.39
2022-08-12T04:41:58.367Z,18.56
2022-08-12T04:44:42.518Z,18.50
2022-08-12T04:47:27.268Z,18.57
2022-08-12T04:50:26.947Z,18.41
2022-08-12T04:53:14.867Z,18.34
2022-08-12T04:55:58.639Z,18.29
2022-08-12T04:58:42.295Z,18.29
2022-08-12T05:01:30.330Z,18.35
2022-08-12T05:04:16.148Z,18.44
2022-08-12T05:06:59.214Z,18.38
2022-08-12T05:10:00.425Z,18.31
2022-08-12T05:12:49.014Z,18.33
2022-08-12T05:15:32.315Z,18.51
2022-08-12T05:18:19.703Z,18.48
2022-08-12T05:21:05.354Z,18.66
2022-08-12T05:23:48.534Z,18.50
2022-08-12T05:26:31.616Z,18.49
2022-08-12T05:30:07.007Z,18.46
2022-08-12T05:32:21.594Z,18.49
2022-08-12T05:35:06.559Z,18.53
2022-08-12T05:38:12.049Z,18.66
2022-08-12T05:40:55.427Z,18.72
2022-08-12T05:43:38.486Z,18.77
2022-08-12T05:46:22.206Z,18.72
2022-08-12T05:49:06.413Z,18.76
2022-08-12T05:51:49.728Z,18.87
2022-08-12T05:54:56.241Z,18.96
2022-08-12T05:57:37.582Z,19.06
2022-08-12T06:00:21.908Z,19.03
2022-08-12T06:03:08.218Z,19.11
2022-08-12T06:05:55.181Z,19.20
2022-08-12T06:08:39.474Z,19.31
2022-08-12T06:11:25.319Z,19.39
2022-08-12T06:14:11.922Z,19.36
2022-08-12T06:16:55.329Z,19.58
2022-08-12T06:20:26.536Z,19.70
2022-08-12T06:22:41.806Z,19.84
2022-08-12T06:25:29.296Z,19.91
2022-08-12T06:28:21.318Z,19.95
2022-08-12T06:35:23.651Z,20.24
2022-08-12T06:37:13.961Z,20.29
2022-08-12T06:40:03.702Z,20.37
2022-08-12T06:42:49.031Z,20.31
2022-08-12T06:45:45.579Z,20.35
2022-08-12T06:48:30.149Z,20.50
2022-08-12T06:51:13.428Z,20.61
2022-08-12T06:53:57.014Z,20.84
2022-08-12T06:57:03.194Z,21.03
2022-08-12T06:59:44.137Z,21.17
2022-08-12T07:02:31.516Z,21.14
2022-08-12T07:05:18.129Z,21.18
2022-08-12T07:08:10.993Z,21.29
2022-08-12T07:10:59.043Z,21.53
2022-08-12T07:14:02.515Z,21.78
2022-08-12T07:16:53.742Z,22.12
2022-08-12T07:19:45.139Z,22.44
2022-08-12T07:22:28.669Z,22.66
2022-08-12T07:25:28.939Z,22.56
2022-08-12T07:28:16.933Z,22.82
2022-08-12T07:31:00.643Z,23.07
2022-08-12T07:33:43.960Z,23.21
2022-08-12T07:36:28.587Z,23.81
2022-08-12T07:39:12.278Z,24.56
2022-08-12T07:41:55.456Z,25.52
2022-08-12T07:44:38.534Z,26.36
2022-08-12T07:47:21.648Z,26.72
2022-08-12T07:50:09.334Z,27.97
2022-08-12T07:52:53.943Z,28.90
2022-08-12T07:55:37.065Z,30.11
2022-08-12T07:58:20.130Z,31.28
2022-08-12T08:01:05.028Z,31.68
2022-08-12T08:04:17.997Z,31.80
2022-08-12T08:07:02.025Z,32.35
2022-08-12T08:09:46.538Z,32.97
2022-08-12T08:12:47.765Z,33.67
2022-08-12T08:16:01.644Z,34.36
2022-08-12T08:18:35.886Z,35.51
2022-08-12T08:21:21.989Z,35.48
2022-08-12T08:24:18.329Z,35.53
2022-08-12T08:27:02.831Z,35.57
2022-08-12T08:29:45.909Z,35.71
2022-08-12T08:32:28.957Z,34.75
2022-08-12T08:35:13.203Z,34.67
2022-08-12T08:38:08.443Z,36.18
2022-08-12T08:41:11.364Z,36.82
2022-08-12T08:43:59.979Z,36.64
2022-08-12T08:46:44.568Z,36.63
2022-08-12T08:49:27.819Z,36.29
2022-08-12T08:52:12.336Z,37.34
2022-08-12T08:54:55.679Z,37.47
2022-08-12T08:57:43.979Z,37.68
2022-08-12T09:00:29.740Z,37.24
2022-08-12T09:04:21.209Z,38.09
2022-08-12T09:06:17.164Z,37.43
2022-08-12T09:09:00.714Z,38.13
2022-08-12T09:12:13.957Z,37.70
2022-08-12T09:14:58.459Z,37.10
2022-08-12T09:17:54.690Z,36.06
2022-08-12T09:20:39.827Z,34.39
2022-08-12T09:23:59.196Z,33.77
2022-08-12T09:26:28.102Z,33.21
2022-08-12T09:29:14.221Z,32.95
2022-08-12T09:32:07.339Z,34.09
2022-08-12T09:34:54.801Z,35.06
2022-08-12T09:37:58.007Z,34.38
2022-08-12T09:41:02.186Z,33.97
2022-08-12T09:44:05.043Z,34.40
2022-08-12T09:46:48.585Z,34.90
2022-08-12T09:49:42.045Z,34.31
2022-08-12T09:52:31.950Z,33.80
2022-08-12T09:56:05.544Z,32.60
2022-08-12T09:58:57.818Z,32.42
2022-08-12T10:01:24.427Z,32.17
2022-08-12T10:04:11.795Z,31.64
2022-08-12T10:06:57.669Z,31.21
2022-08-12T10:09:58.155Z,30.73
2022-08-12T10:13:07.746Z,30.02
2022-08-12T10:16:01.974Z,29.52
2022-08-12T10:18:51.863Z,30.92
2022-08-12T10:21:38.628Z,32.78
2022-08-12T10:24:23.272Z,33.51
2022-08-12T10:27:25.668Z,33.67
2022-08-12T10:30:41.973Z,33.66
2022-08-12T10:33:30.816Z,34.52
2022-08-12T10:36:14.908Z,35.81
2022-08-12T10:38:58.087Z,36.72
2022-08-12T10:42:00.164Z,36.72
2022-08-12T10:44:46.750Z,35.35
2022-08-12T10:48:14.965Z,33.98
2022-08-12T10:51:02.098Z,33.13
2022-08-12T10:53:45.758Z,32.12
2022-08-12T10:56:34.146Z,31.70
2022-08-12T10:59:19.705Z,31.05
2022-08-12T11:04:23.172Z,30.90
2022-08-12T11:07:02.589Z,30.96
2022-08-12T11:08:43.396Z,31.05
2022-08-12T11:12:35.672Z,30.82
2022-08-12T11:14:49.335Z,30.89
2022-08-12T11:17:51.819Z,30.41
2022-08-12T11:20:36.225Z,30.25
2022-08-12T11:23:25.018Z,30.34
2022-08-12T11:26:20.152Z,29.83
2022-08-12T11:29:06.070Z,29.42
2022-08-12T11:32:06.005Z,29.49
2022-08-12T11:34:53.857Z,29.08
2022-08-12T11:37:57.783Z,28.77
2022-08-12T11:40:42.560Z,28.70
2022-08-12T11:43:26.374Z,28.46
2022-08-12T11:46:18.464Z,28.70
2022-08-12T11:49:01.619Z,28.76
2022-08-12T11:51:46.180Z,28.41
2022-08-12T11:54:40.991Z,28.22
2022-08-12T11:58:13.633Z,28.22
2022-08-12T12:03:46.090Z,28.05
2022-08-12T12:06:29.546Z,27.63
2022-08-12T12:09:13.998Z,27.36
2022-08-12T12:12:00.914Z,26.96
2022-08-12T12:14:44.567Z,26.75
2022-08-12T12:17:39.350Z,26.53
2022-08-12T12:20:26.137Z,26.52
2022-08-12T12:23:28.812Z,26.29
2022-08-12T12:26:35.531Z,26.04
2022-08-12T12:30:19.471Z,26.04
2022-08-12T12:32:28.884Z,26.23
2022-08-12T12:35:13.848Z,26.38
2022-08-12T12:38:17.559Z,26.40
2022-08-12T12:41:16.552Z,26.33
2022-08-12T12:44:04.418Z,26.43
2022-08-12T12:46:49.791Z,26.23
2022-08-12T12:49:32.995Z,25.67
2022-08-12T12:52:19.679Z,25.42
2022-08-12T12:55:04.494Z,25.61
2022-08-12T12:58:00.398Z,25.22
2022-08-12T13:00:50.971Z,25.05
2022-08-12T13:03:35.614Z,25.18
2022-08-12T13:06:32.886Z,25.14
2022-08-12T13:09:19.578Z,25.09
2022-08-12T13:12:10.442Z,25.04
2022-08-12T13:14:53.834Z,24.93
2022-08-12T13:18:02.283Z,25.08
2022-08-12T13:20:43.603Z,25.01
2022-08-12T13:23:35.915Z,24.76
2022-08-12T13:26:21.185Z,24.56
2022-08-12T13:29:04.437Z,24.22
2022-08-12T13:32:18.870Z,24.18
2022-08-12T13:35:04.616Z,24.21
2022-08-12T13:37:59.400Z,24.16
2022-08-12T13:40:46.284Z,24.17
2022-08-12T13:43:41.076Z,24.35
2022-08-12T13:46:25.562Z,24.34
2022-08-12T13:49:11.622Z,24.22
2022-08-12T13:52:02.401Z,24.01
2022-08-12T13:54:56.064Z,23.73
2022-08-12T13:57:44.440Z,23.61
2022-08-12T14:00:34.286Z,23.49
2022-08-12T14:03:28.067Z,23.37
2022-08-12T14:06:15.522Z,23.34
2022-08-12T14:09:00.512Z,23.31
2022-08-12T14:12:01.119Z,23.29
2022-08-12T14:14:49.433Z,23.18
2022-08-12T14:17:38.028Z,23.27
2022-08-12T14:20:21.405Z,23.27
2022-08-12T14:24:02.069Z,23.36
2022-08-12T14:26:19.975Z,23.34
2022-08-12T14:29:04.750Z,23.46
2022-08-12T14:31:52.301Z,23.54
2022-08-12T14:34:35.667Z,23.70
2022-08-12T14:37:55.899Z,23.63
2022-08-12T14:40:27.777Z,23.72
2022-08-12T14:43:14.194Z,23.76
2022-08-12T14:45:59.249Z,23.80
2022-08-12T14:48:43.772Z,23.95
2022-08-12T14:52:43.447Z,24.01
2022-08-12T14:57:00.056Z,24.23
2022-08-12T14:57:56.614Z,24.27
2022-08-12T15:00:57.839Z,24.29
2022-08-12T15:03:52.293Z,24.35
2022-08-12T15:06:52.586Z,24.32
2022-08-12T15:09:36.103Z,24.42
2022-08-12T15:12:24.680Z,24.50
2022-08-12T15:15:10.518Z,24.54
2022-08-12T15:18:02.479Z,24.65
2022-08-12T15:20:45.669Z,24.63
2022-08-12T15:23:32.923Z,24.64
2022-08-12T15:26:21.363Z,24.69
2022-08-12T15:29:14.474Z,24.75
2022-08-12T15:31:59.788Z,24.64
2022-08-12T15:34:46.640Z,24.60
2022-08-12T15:38:09.226Z,24.53
2022-08-12T15:40:37.038Z,24.29
2022-08-12T15:44:16.119Z,24.31
2022-08-12T15:46:33.594Z,24.21
2022-08-12T15:49:18.110Z,24.13
2022-08-12T15:52:05.189Z,24.03
2022-08-12T15:54:48.490Z,23.98
2022-08-12T15:57:33.226Z,24.01
2022-08-12T16:00:35.858Z,23.97
2022-08-12T16:03:28.626Z,23.96
2022-08-12T16:06:50.935Z,23.89
2022-08-12T16:09:56.688Z,23.87
2022-08-12T16:12:43.481Z,23.81
2022-08-12T16:15:37.949Z,23.83
2022-08-12T16:18:26.217Z,23.76
2022-08-12T16:21:10.717Z,23.74
2022-08-12T16:24:14.482Z,23.73
2022-08-12T16:26:59.077Z,23.71
2022-08-12T16:29:53.182Z,23.74
2022-08-12T16:32:38.708Z,23.72
2022-08-12T16:35:21.824Z,23.65
2022-08-12T16:38:24.768Z,23.63
2022-08-12T16:41:13.566Z,23.63
2022-08-12T16:43:59.906Z,23.57
2022-08-12T16:46:57.569Z,23.49
2022-08-12T16:49:43.535Z,23.57
2022-08-12T16:52:29.640Z,23.55
2022-08-12T16:55:12.946Z,23.48
2022-08-12T16:57:56.526Z,23.46
2022-08-12T17:00:41.546Z,23.42
2022-08-12T17:03:36.832Z,23.40
2022-08-12T17:06:22.555Z,23.37
2022-08-12T17:09:17.184Z,23.26
2022-08-12T17:12:01.480Z,23.11
2022-08-12T17:14:52.843Z,23.00
2022-08-12T17:17:39.795Z,22.87
2022-08-12T17:20:36.069Z,22.83
2022-08-12T17:23:23.409Z,22.81
2022-08-12T17:26:06.986Z,22.79
2022-08-12T17:28:52.609Z,22.66
2022-08-12T17:32:00.734Z,22.53
2022-08-12T17:35:00.015Z,22.49
2022-08-12T17:37:43.990Z,22.44
2022-08-12T17:40:35.284Z,22.28
2022-08-12T17:43:51.876Z,22.27
2022-08-12T17:46:23.908Z,22.33
2022-08-12T17:49:19.425Z,22.18
2022-08-12T17:52:23.146Z,22.06
2022-08-12T17:55:36.696Z,22.00
2022-08-12T17:58:36.934Z,21.96
2022-08-12T18:01:22.530Z,21.87
2022-08-12T18:04:22.050Z,21.83
2022-08-12T18:07:08.500Z,21.77
2022-08-12T18:09:54.235Z,21.64
2022-08-12T18:12:42.849Z,21.62
2022-08-12T18:16:05.178Z,21.50
2022-08-12T18:18:39.323Z,21.43
2022-08-12T18:21:25.733Z,21.37
2022-08-12T18:24:22.065Z,21.32
2022-08-12T18:27:27.232Z,21.34
2022-08-12T18:30:12.111Z,21.26
2022-08-12T18:33:03.535Z,21.27
2022-08-12T18:35:53.613Z,21.20
2022-08-12T18:38:37.293Z,21.14
2022-08-12T18:41:34.579Z,21.07
2022-08-12T18:44:19.525Z,21.10
2022-08-12T18:49:48.396Z,21.02
2022-08-12T18:52:35.570Z,21.07
2022-08-12T18:55:18.938Z,20.98
2022-08-12T18:58:07.952Z,20.96
2022-08-12T19:00:55.701Z,20.90
2022-08-12T19:03:40.225Z,20.79
2022-08-12T19:06:24.782Z,20.74
2022-08-12T19:09:14.639Z,20.75
2022-08-12T19:12:15.057Z,20.75
2022-08-12T19:15:07.839Z,20.72
2022-08-12T19:18:00.532Z,20.68
2022-08-12T19:20:48.025Z,20.65
2022-08-12T19:23:34.930Z,20.61
2022-08-12T19:26:19.616Z,20.51
2022-08-12T19:29:10.786Z,20.55
2022-08-12T19:31:58.978Z,20.50
2022-08-12T19:35:54.154Z,20.43
2022-08-12T19:38:06.880Z,20.41
2022-08-12T19:40:50.804Z,20.44
2022-08-12T19:43:59.228Z,20.43
2022-08-12T19:46:42.517Z,20.42
2022-08-12T19:49:36.054Z,20.43
2022-08-12T19:52:21.794Z,20.42
2022-08-12T19:55:11.383Z,20.42
2022-08-12T19:58:04.768Z,20.43
2022-08-12T20:00:52.578Z,20.44
2022-08-12T20:03:39.114Z,20.45
2022-08-12T20:06:27.691Z,20.64
2022-08-12T20:09:16.598Z,20.54
2022-08-12T20:12:11.962Z,20.39
2022-08-12T20:15:05.193Z,20.34
2022-08-12T20:17:51.047Z,20.25
2022-08-12T20:20:35.413Z,20.24
2022-08-12T20:23:24.364Z,20.20
2022-08-12T20:26:28.965Z,20.31
2022-08-12T20:29:14.160Z,20.42
2022-08-12T20:32:00.650Z,20.24
2022-08-12T20:34:44.355Z,20.24
2022-08-12T20:38:07.261Z,20.29
2022-08-12T20:40:33.201Z,20.11
2022-08-12T20:43:23.204Z,20.07
2022-08-12T20:46:12.007Z,20.07
2022-08-12T20:48:57.634Z,20.02
2022-08-12T20:51:55.010Z,20.02
2022-08-12T20:54:40.497Z,19.79
2022-08-12T20:57:24.002Z,19.76
2022-08-12T21:00:18.126Z,19.75
2022-08-12T21:03:19.597Z,19.86
2022-08-12T21:06:19.897Z,19.87
2022-08-12T21:09:07.389Z,19.66
2022-08-12T21:11:53.267Z,19.58
2022-08-12T21:14:39.881Z,19.45
2022-08-12T21:18:08.616Z,19.45
2022-08-12T21:20:44.556Z,19.29
2022-08-12T21:23:31.070Z,19.45
2022-08-12T21:26:20.387Z,19.36
2022-08-12T21:29:04.225Z,19.28
2022-08-12T21:32:39.614Z,19.28
2022-08-12T21:34:52.667Z,19.35
2022-08-12T21:37:37.760Z,19.31
2022-08-12T21:40:32.341Z,19.28
2022-08-12T21:43:21.116Z,19.23
2022-08-12T21:46:04.433Z,19.18
2022-08-12T21:48:48.541Z,19.16
2022-08-12T21:51:49.827Z,19.20
2022-08-12T21:54:37.578Z,19.26
2022-08-12T21:57:22.076Z,19.34
2022-08-12T22:00:16.861Z,19.25
2022-08-12T22:04:10.797Z,19.33
2022-08-12T22:06:42.865Z,19.36
2022-08-12T22:09:30.334Z,19.42
2022-08-12T22:12:37.651Z,19.44
2022-08-12T22:15:22.078Z,19.46
2022-08-12T22:18:07.481Z,19.44
2022-08-12T22:20:54.691Z,19.40
2022-08-12T22:24:04.067Z,19.47
2022-08-12T22:26:43.556Z,19.40
2022-08-12T22:29:44.447Z,19.30
2022-08-12T22:32:30.117Z,19.36
2022-08-12T22:35:55.346Z,19.45
2022-08-12T22:38:36.929Z,19.47
2022-08-12T22:41:42.511Z,19.43
2022-08-12T22:44:59.269Z,19.39
2022-08-12T22:47:54.110Z,19.29
2022-08-12T22:50:39.076Z,19.32
2022-08-12T22:53:22.406Z,19.29
2022-08-12T22:56:08.176Z,19.22
2022-08-12T22:58:55.648Z,19.20
2022-08-12T23:02:00.953Z,19.29
2022-08-12T23:04:45.242Z,19.36
2022-08-12T23:07:36.417Z,19.49
2022-08-12T23:10:32.933Z,19.46
2022-08-12T23:13:43.407Z,19.48
2022-08-12T23:16:31.643Z,19.46
2022-08-12T23:19:23.337Z,19.49
2022-08-12T23:23:05.733Z,19.44
2022-08-12T23:25:21.109Z,19.47
2022-08-12T23:28:30.233Z,19.44
2022-08-12T23:31:14.353Z,19.42
2022-08-12T23:34:00.600Z,19.48
2022-08-12T23:36:48.570Z,19.38
2022-08-12T23:40:14.204Z,19.39
2022-08-12T23:42:36.775Z,19.36
2022-08-12T23:45:31.577Z,19.31
2022-08-12T23:48:23.250Z,19.34
2022-08-12T23:51:22.481Z,19.26
2022-08-12T23:54:10.499Z,19.13
2022-08-12T23:57:16.785Z,19.07
